Time;durP1;ratioP1;P1;durP2;ratioP2;P2;SDS_P1;SDS_P2;PMS_P1;PMS_P2;Temp;Humidity;BMP_temperature;BMP_pressure;BME280_temperature;BME280_humidity;BME280_pressure;Samples;Min_cycle;Max_cycle;Signal;HPM_P1;HPM_P2
2021/11/21 00:00:12;;;;;;;5.47;3.50;;;5.60;70.60;;;;;;5061708;28;20020;-81
2021/11/21 00:02:38;;;;;;;4.40;3.00;;;5.60;70.50;;;;;;5059719;28;20311;-81
2021/11/21 00:05:04;;;;;;;4.83;2.80;;;5.60;71.00;;;;;;5061103;28;20027;-81
2021/11/21 00:07:30;;;;;;;4.00;2.57;;;5.50;70.20;;;;;;5042315;28;20407;-81
2021/11/21 00:09:56;;;;;;;5.00;2.90;;;5.40;70.40;;;;;;5054269;28;20029;-81
2021/11/21 00:12:21;;;;;;;7.53;3.20;;;5.40;70.50;;;;;;5038475;28;20032;-81
2021/11/21 00:14:47;;;;;;;6.23;3.60;;;5.40;70.40;;;;;;5036988;28;20032;-81
2021/11/21 00:17:13;;;;;;;6.33;4.17;;;5.40;70.40;;;;;;5051708;28;20033;-81
2021/11/21 00:19:41;;;;;;;4.67;2.80;;;5.40;70.50;;;;;;5043905;28;20032;-81
2021/11/21 00:22:13;;;;;;;4.13;2.80;;;5.50;70.40;;;;;;5062719;28;20557;-81
2021/11/21 00:24:40;;;;;;;4.90;2.80;;;5.50;70.40;;;;;;5032341;28;20035;-81
2021/11/21 00:27:07;;;;;;;7.23;2.40;;;5.50;70.30;;;;;;5032992;28;20033;-81
2021/11/21 00:29:32;;;;;;;5.20;3.57;;;5.40;70.60;;;;;;5033015;28;20515;-82
2021/11/21 00:31:58;;;;;;;5.70;3.00;;;5.40;70.40;;;;;;5055713;28;20086;-82
2021/11/21 00:34:24;;;;;;;4.77;3.40;;;5.40;70.50;;;;;;5043899;28;20484;-82
2021/11/21 00:36:50;;;;;;;3.80;2.33;;;5.50;70.50;;;;;;5056982;28;20040;-82
2021/11/21 00:39:16;;;;;;;3.20;2.23;;;5.50;70.60;;;;;;5053718;28;20689;-82
2021/11/21 00:41:42;;;;;;;4.37;2.00;;;5.50;70.60;;;;;;5033732;28;20046;-82
2021/11/21 00:44:08;;;;;;;3.73;2.50;;;5.50;70.50;;;;;;5049311;28;20072;-82
2021/11/21 00:46:34;;;;;;;4.83;2.20;;;5.50;70.40;;;;;;5052860;28;20078;-81
2021/11/21 00:49:01;;;;;;;3.53;2.33;;;5.50;70.30;;;;;;5076550;28;20021;-82
2021/11/21 00:51:27;;;;;;;4.53;2.43;;;5.50;70.50;;;;;;5055839;28;20035;-82
2021/11/21 00:53:54;;;;;;;4.17;3.00;;;5.50;70.10;;;;;;5076606;28;20037;-82
2021/11/21 00:56:21;;;;;;;4.30;2.40;;;5.40;70.50;;;;;;5052079;28;20032;-82
2021/11/21 00:58:47;;;;;;;4.27;2.47;;;5.40;70.50;;;;;;5053959;28;20399;-82
2021/11/21 01:01:14;;;;;;;6.10;2.60;;;5.40;70.40;;;;;;5069353;28;20127;-82
2021/11/21 01:03:40;;;;;;;3.77;1.87;;;5.40;70.40;;;;;;5075918;28;20120;-82
2021/11/21 01:06:07;;;;;;;4.03;2.10;;;5.40;70.20;;;;;;5072473;28;20016;-82
2021/11/21 01:08:32;;;;;;;3.90;2.30;;;5.40;70.10;;;;;;5059642;28;20098;-82
2021/11/21 01:11:02;;;;;;;3.00;1.73;;;5.40;70.00;;;;;;5068221;28;20499;-82
2021/11/21 01:13:29;;;;;;;4.67;1.97;;;5.30;70.20;;;;;;5069161;28;20036;-82
2021/11/21 01:15:55;;;;;;;3.47;2.20;;;5.30;70.20;;;;;;5084317;28;20135;-82
2021/11/21 01:18:21;;;;;;;8.07;2.23;;;5.20;69.90;;;;;;5053204;28;20025;-82
2021/11/21 01:20:47;;;;;;;5.60;3.10;;;5.20;70.10;;;;;;5060136;28;20054;-82
2021/11/21 01:23:15;;;;;;;5.23;2.70;;;5.20;70.30;;;;;;5069960;28;20100;-82
2021/11/21 01:25:42;;;;;;;7.27;4.07;;;5.20;70.20;;;;;;5066763;28;20024;-82
2021/11/21 01:28:08;;;;;;;4.90;3.10;;;5.20;70.30;;;;;;5078773;28;20561;-81
2021/11/21 01:30:35;;;;;;;3.57;2.93;;;5.20;70.20;;;;;;5074506;28;20056;-81
2021/11/21 01:33:02;;;;;;;5.17;2.50;;;5.20;70.30;;;;;;5074117;28;20049;-81
2021/11/21 01:35:29;;;;;;;3.70;2.10;;;5.20;70.30;;;;;;5073758;28;20130;-81
2021/11/21 01:37:55;;;;;;;6.33;2.20;;;5.10;70.30;;;;;;5058158;28;20024;-81
2021/11/21 01:40:23;;;;;;;6.17;2.57;;;5.10;70.30;;;;;;5054500;28;20036;-82
2021/11/21 01:42:51;;;;;;;4.17;2.73;;;5.10;70.40;;;;;;5070730;28;20102;-82
2021/11/21 01:45:17;;;;;;;4.03;2.07;;;5.10;70.40;;;;;;5048212;28;20146;-82
2021/11/21 01:47:44;;;;;;;3.40;2.50;;;5.10;70.40;;;;;;5078767;28;20058;-82
2021/11/21 01:50:16;;;;;;;2.70;1.70;;;5.00;70.40;;;;;;5068535;28;20026;-82
2021/11/21 01:52:42;;;;;;;3.33;1.90;;;5.00;70.30;;;;;;5071768;28;20023;-82
2021/11/21 01:55:08;;;;;;;3.20;1.97;;;5.00;70.30;;;;;;5052727;28;20036;-82
2021/11/21 01:57:34;;;;;;;4.50;2.40;;;4.90;70.20;;;;;;5055525;28;20552;-80
2021/11/21 02:00:02;;;;;;;5.43;2.13;;;4.80;70.30;;;;;;5075142;28;20058;-81
2021/11/21 02:02:34;;;;;;;3.90;2.40;;;4.90;70.80;;;;;;5070750;28;20069;-82
2021/11/21 02:05:00;;;;;;;6.28;2.55;;;4.90;70.60;;;;;;5051488;28;20106;-81
2021/11/21 02:07:29;;;;;;;3.97;2.10;;;4.90;70.40;;;;;;5078512;28;20104;-81
2021/11/21 02:09:54;;;;;;;4.77;2.33;;;4.90;70.60;;;;;;5053996;28;20024;-81
2021/11/21 02:12:20;;;;;;;2.57;1.80;;;4.90;70.60;;;;;;5072246;28;20029;-81
2021/11/21 02:14:46;;;;;;;3.63;2.00;;;4.90;70.70;;;;;;5051150;28;20031;-81
2021/11/21 02:17:11;;;;;;;2.67;1.87;;;4.90;70.70;;;;;;5051287;28;20115;-80
2021/11/21 02:19:37;;;;;;;3.77;3.07;;;4.90;70.70;;;;;;5066099;28;20032;-81
2021/11/21 02:22:03;;;;;;;2.33;1.40;;;4.90;70.50;;;;;;5077856;28;20115;-81
2021/11/21 02:24:30;;;;;;;4.37;2.07;;;4.90;70.70;;;;;;5059099;28;20028;-80
2021/11/21 02:26:55;;;;;;;2.77;1.70;;;4.90;70.60;;;;;;5062857;28;20020;-81
2021/11/21 02:29:21;;;;;;;3.37;2.23;;;4.90;70.50;;;;;;5054038;28;20020;-80
2021/11/21 02:31:47;;;;;;;2.83;2.10;;;4.90;70.40;;;;;;5068965;28;20039;-83
2021/11/21 02:34:13;;;;;;;8.13;3.53;;;4.80;70.40;;;;;;5049724;28;20078;-80
2021/11/21 02:36:43;;;;;;;16.40;6.87;;;4.80;70.50;;;;;;5047986;28;20548;-81
2021/11/21 02:39:10;;;;;;;9.30;4.90;;;4.80;70.30;;;;;;5053394;28;20031;-82
2021/11/21 02:41:37;;;;;;;14.13;5.37;;;4.90;70.20;;;;;;5047342;28;20495;-82
2021/11/21 02:44:03;;;;;;;9.63;3.70;;;4.80;70.30;;;;;;5051509;28;20041;-81
2021/11/21 02:46:31;;;;;;;4.93;3.00;;;4.80;70.20;;;;;;5053810;28;20483;-81
2021/11/21 02:48:57;;;;;;;6.07;3.33;;;4.90;70.10;;;;;;5052777;28;20135;-81
2021/11/21 02:51:23;;;;;;;4.47;2.90;;;4.80;70.00;;;;;;5049752;28;20295;-81
2021/11/21 02:53:48;;;;;;;5.67;3.77;;;4.80;70.00;;;;;;5070648;28;20032;-81
2021/11/21 02:56:17;;;;;;;4.70;3.60;;;4.70;70.30;;;;;;5050137;28;20124;-81
2021/11/21 02:58:44;;;;;;;8.20;4.80;;;4.80;70.10;;;;;;5053757;28;20012;-81
2021/11/21 03:01:22;;;;;;;8.93;5.80;;;4.80;70.00;;;;;;5054552;28;20027;-81
2021/11/21 03:03:48;;;;;;;8.40;4.57;;;4.80;69.80;;;;;;5050158;28;20070;-81
2021/11/21 03:06:14;;;;;;;6.80;4.20;;;4.70;70.00;;;;;;5045879;28;20094;-81
2021/11/21 03:08:41;;;;;;;8.97;4.97;;;4.70;70.10;;;;;;5050514;28;20020;-81
2021/11/21 03:11:28;;;;;;;8.23;4.57;;;4.70;70.20;;;;;;5057511;28;20468;-81
2021/11/21 03:13:55;;;;;;;6.67;4.40;;;4.70;70.20;;;;;;5050872;28;20048;-81
2021/11/21 03:16:21;;;;;;;10.97;5.40;;;4.70;70.10;;;;;;5075076;28;20028;-81
2021/11/21 03:18:47;;;;;;;7.03;5.20;;;4.70;70.30;;;;;;5054201;28;20032;-81
2021/11/21 03:21:13;;;;;;;5.03;3.40;;;4.60;70.40;;;;;;5051724;28;20364;-81
2021/11/21 03:23:40;;;;;;;4.67;2.93;;;4.60;70.60;;;;;;5051045;28;20032;-81
2021/11/21 03:26:06;;;;;;;6.33;4.17;;;4.60;70.80;;;;;;5044956;28;20036;-81
2021/11/21 03:28:31;;;;;;;8.60;5.30;;;4.60;70.80;;;;;;5047256;28;20391;-81
2021/11/21 03:30:57;;;;;;;11.63;4.57;;;4.60;71.00;;;;;;5066514;28;20021;-82
2021/11/21 03:33:23;;;;;;;7.90;3.07;;;4.60;70.70;;;;;;5066418;28;20551;-82
2021/11/21 03:35:49;;;;;;;4.83;2.53;;;4.60;70.50;;;;;;5044483;28;20040;-82
2021/11/21 03:38:15;;;;;;;7.07;3.40;;;4.60;70.40;;;;;;5066653;28;20035;-82
2021/11/21 03:40:41;;;;;;;5.90;3.40;;;4.60;70.40;;;;;;5076215;28;20449;-82
2021/11/21 03:43:06;;;;;;;6.57;3.83;;;4.60;70.60;;;;;;5005222;28;1196607;-82
2021/11/21 03:45:32;;;;;;;7.80;3.07;;;4.60;70.70;;;;;;5065486;28;20050;-81
2021/11/21 03:47:58;;;;;;;8.30;3.07;;;4.60;70.60;;;;;;5058215;28;20383;-82
2021/11/21 03:50:24;;;;;;;5.43;3.20;;;4.60;70.70;;;;;;5079720;28;20060;-82
2021/11/21 03:52:50;;;;;;;6.80;3.80;;;4.60;70.50;;;;;;5055957;28;20103;-82
2021/11/21 03:55:18;;;;;;;7.77;3.77;;;4.60;70.40;;;;;;5073335;28;20568;-82
2021/11/21 03:57:44;;;;;;;6.67;3.20;;;4.60;70.30;;;;;;5055449;28;20101;-82
2021/11/21 04:00:13;;;;;;;4.27;2.57;;;4.60;70.10;;;;;;5048637;28;20039;-82
2021/11/21 04:02:40;;;;;;;3.97;2.47;;;4.60;70.40;;;;;;5056193;28;20067;-82
2021/11/21 04:05:13;;;;;;;3.20;2.13;;;4.60;70.50;;;;;;5080162;28;20039;-81
2021/11/21 04:07:40;;;;;;;3.20;1.95;;;4.50;70.30;;;;;;5065475;28;20039;-81
2021/11/21 04:10:07;;;;;;;4.40;2.37;;;4.60;70.40;;;;;;5058234;28;20050;-81
2021/11/21 04:12:32;;;;;;;7.67;2.80;;;4.60;70.30;;;;;;5056789;28;20459;-82
2021/11/21 04:14:58;;;;;;;3.57;1.90;;;4.50;70.30;;;;;;5062171;28;20036;-82
2021/11/21 04:17:24;;;;;;;5.97;2.20;;;4.50;70.30;;;;;;5070700;28;20034;-82
2021/11/21 04:19:50;;;;;;;3.13;2.03;;;4.50;70.40;;;;;;5076319;28;20095;-82
2021/11/21 04:22:16;;;;;;;4.37;1.87;;;4.50;70.30;;;;;;5057579;28;20052;-82
2021/11/21 04:24:42;;;;;;;5.97;3.40;;;4.50;70.20;;;;;;5051411;28;20525;-82
2021/11/21 04:27:07;;;;;;;10.30;4.43;;;4.50;70.20;;;;;;5075345;28;20012;-82
2021/11/21 04:29:34;;;;;;;7.40;4.00;;;4.50;70.20;;;;;;5055719;28;20479;-82
2021/11/21 04:32:00;;;;;;;6.77;3.80;;;4.50;70.10;;;;;;5049735;28;20020;-82
2021/11/21 04:34:27;;;;;;;8.83;4.17;;;4.50;70.10;;;;;;5052887;28;20040;-82
2021/11/21 04:36:55;;;;;;;10.20;4.50;;;4.50;70.30;;;;;;5051345;28;20387;-82
2021/11/21 04:39:22;;;;;;;7.10;4.30;;;4.50;70.30;;;;;;5068988;28;20024;-82
2021/11/21 04:41:48;;;;;;;9.87;4.57;;;4.50;70.20;;;;;;5054176;28;20577;-81
2021/11/21 04:44:14;;;;;;;7.30;4.03;;;4.50;70.20;;;;;;5049531;28;20135;-82
2021/11/21 04:46:40;;;;;;;8.43;4.60;;;4.40;70.20;;;;;;5071216;28;20028;-81
2021/11/21 04:49:05;;;;;;;6.60;3.47;;;4.40;70.30;;;;;;5093839;28;20032;-81
2021/11/21 04:51:31;;;;;;;7.87;3.50;;;4.30;70.30;;;;;;5051371;28;20373;-81
2021/11/21 04:53:57;;;;;;;4.03;2.50;;;4.30;70.60;;;;;;5072006;28;20055;-82
2021/11/21 04:56:24;;;;;;;5.77;2.73;;;4.30;70.60;;;;;;5052852;28;20024;-81
2021/11/21 04:58:50;;;;;;;8.73;2.80;;;4.40;70.50;;;;;;5052544;28;20055;-81
2021/11/21 05:01:16;;;;;;;6.43;3.30;;;4.30;70.30;;;;;;5068471;28;20032;-82
2021/11/21 05:03:41;;;;;;;4.27;2.40;;;4.20;70.40;;;;;;5051927;28;21839;-82
2021/11/21 05:06:07;;;;;;;5.07;2.77;;;4.30;70.60;;;;;;5060225;28;20024;-81
2021/11/21 05:08:33;;;;;;;4.77;2.93;;;4.30;70.40;;;;;;5060623;28;20032;-81
2021/11/21 05:10:59;;;;;;;5.17;3.33;;;4.30;70.20;;;;;;5053974;28;20479;-82
2021/11/21 05:13:24;;;;;;;5.73;3.37;;;4.30;70.00;;;;;;5048880;28;20488;-81
2021/11/21 05:15:50;;;;;;;6.00;3.50;;;4.30;70.10;;;;;;5056559;28;20028;-81
2021/11/21 05:18:16;;;;;;;22.80;8.97;;;4.30;70.10;;;;;;5069077;28;20035;-82
2021/11/21 05:20:42;;;;;;;31.33;12.30;;;4.20;70.10;;;;;;5064096;28;20430;-82
2021/11/21 05:23:08;;;;;;;44.00;16.90;;;4.20;70.10;;;;;;5051756;28;20078;-82
2021/11/21 05:25:33;;;;;;;44.83;16.53;;;4.20;70.10;;;;;;5069689;28;20115;-81
2021/11/21 05:27:59;;;;;;;9.47;5.10;;;4.20;70.30;;;;;;5053410;28;20112;-81
2021/11/21 05:30:25;;;;;;;9.67;4.53;;;4.20;70.40;;;;;;5053014;28;20119;-81
2021/11/21 05:32:51;;;;;;;10.90;5.47;;;4.20;70.20;;;;;;5072602;28;20364;-82
2021/11/21 05:35:18;;;;;;;16.70;7.20;;;4.20;70.30;;;;;;5050681;28;20119;-82
2021/11/21 05:37:46;;;;;;;18.10;7.63;;;4.20;70.20;;;;;;5045669;28;20085;-81
2021/11/21 05:40:13;;;;;;;19.17;9.20;;;4.20;70.20;;;;;;5045792;28;20040;-82
2021/11/21 05:42:39;;;;;;;14.53;7.50;;;4.20;70.20;;;;;;5052414;28;20048;-82
2021/11/21 05:45:05;;;;;;;18.73;11.10;;;4.20;70.00;;;;;;5050290;28;20031;-82
2021/11/21 05:47:31;;;;;;;13.77;6.07;;;4.10;69.90;;;;;;5051604;28;20028;-82
2021/11/21 05:49:58;;;;;;;9.30;5.43;;;4.10;70.00;;;;;;5052781;28;20036;-82
2021/11/21 05:52:24;;;;;;;7.70;5.60;;;4.00;70.10;;;;;;5072834;28;20036;-82
2021/11/21 05:54:50;;;;;;;7.73;4.50;;;4.00;70.30;;;;;;5067187;28;20037;-81
2021/11/21 05:57:17;;;;;;;14.13;9.00;;;4.00;70.50;;;;;;5071120;28;20032;-82
2021/11/21 05:59:43;;;;;;;14.03;8.70;;;4.00;70.10;;;;;;5073487;28;20020;-82
2021/11/21 06:02:09;;;;;;;13.70;8.83;;;4.00;70.10;;;;;;5047898;28;20514;-82
2021/11/21 06:04:35;;;;;;;10.70;5.47;;;4.10;69.80;;;;;;5064805;28;20338;-82
2021/11/21 06:07:01;;;;;;;12.20;5.97;;;4.10;69.80;;;;;;5052746;28;20048;-83
2021/11/21 06:09:27;;;;;;;12.67;7.33;;;4.00;69.60;;;;;;5051828;28;20028;-82
2021/11/21 06:11:54;;;;;;;16.77;7.40;;;3.90;70.30;;;;;;5053160;28;20024;-82
2021/11/21 06:14:20;;;;;;;11.90;7.23;;;3.90;69.80;;;;;;5060882;28;20024;-82
2021/11/21 06:16:47;;;;;;;13.53;6.20;;;3.90;69.90;;;;;;5048229;28;20029;-82
2021/11/21 06:19:12;;;;;;;12.63;7.27;;;3.90;69.90;;;;;;5057036;28;20119;-82
2021/11/21 06:21:38;;;;;;;17.40;6.13;;;4.00;70.00;;;;;;5062591;28;20060;-82
2021/11/21 06:24:04;;;;;;;12.97;4.80;;;3.80;69.90;;;;;;5069245;28;20028;-82
2021/11/21 06:26:30;;;;;;;126.30;9.67;;;3.80;70.30;;;;;;5067683;28;20025;-82
2021/11/21 06:28:57;;;;;;;52.77;7.30;;;3.70;70.30;;;;;;5056655;28;20027;-82
2021/11/21 06:31:23;;;;;;;102.97;8.83;;;3.70;70.30;;;;;;5053423;28;20039;-81
2021/11/21 06:33:49;;;;;;;47.87;8.10;;;3.70;70.40;;;;;;5059880;28;20035;-81
2021/11/21 06:36:15;;;;;;;88.87;9.53;;;3.60;70.50;;;;;;5069105;28;20332;-81
2021/11/21 06:38:42;;;;;;;82.70;10.07;;;3.70;70.80;;;;;;5052130;28;20483;-81
2021/11/21 06:41:08;;;;;;;78.53;10.73;;;3.70;70.80;;;;;;5060603;28;20040;-81
2021/11/21 06:43:33;;;;;;;109.10;9.03;;;3.70;70.90;;;;;;5068777;28;20411;-81
2021/11/21 06:45:59;;;;;;;95.43;9.60;;;3.70;70.90;;;;;;5048356;28;20036;-81
2021/11/21 06:48:25;;;;;;;30.23;8.43;;;3.70;71.10;;;;;;5068778;28;20025;-81
2021/11/21 06:50:54;;;;;;;141.47;12.87;;;3.70;71.10;;;;;;5052856;28;20115;-81
2021/11/21 06:53:21;;;;;;;170.03;14.20;;;3.70;71.40;;;;;;5049546;28;20032;-82
2021/11/21 06:55:48;;;;;;;39.80;8.70;;;3.70;71.40;;;;;;5071712;28;20059;-80
2021/11/21 06:58:13;;;;;;;40.10;9.07;;;3.70;71.60;;;;;;5054338;28;20043;-81
2021/11/21 07:00:39;;;;;;;24.07;8.83;;;3.70;71.60;;;;;;5055098;28;20024;-81
2021/11/21 07:03:05;;;;;;;32.93;19.87;;;3.70;71.70;;;;;;5057598;28;21522;-80
2021/11/21 07:05:31;;;;;;;27.77;19.63;;;3.70;71.80;;;;;;5052440;28;20067;-81
2021/11/21 07:07:57;;;;;;;32.50;18.60;;;3.70;71.70;;;;;;5068053;28;21831;-81
2021/11/21 07:10:23;;;;;;;30.57;22.57;;;3.70;71.70;;;;;;5050540;28;20034;-81
2021/11/21 07:12:49;;;;;;;29.40;18.47;;;3.80;71.70;;;;;;5069842;28;20031;-80
2021/11/21 07:15:17;;;;;;;26.33;15.20;;;3.80;71.50;;;;;;5054056;28;20066;-81
2021/11/21 07:17:44;;;;;;;30.20;15.83;;;3.80;71.60;;;;;;5062668;28;20039;-81
2021/11/21 07:20:15;;;;;;;19.03;14.40;;;3.80;71.40;;;;;;5055215;28;20115;-80
2021/11/21 07:22:52;;;;;;;29.57;13.93;;;3.80;71.50;;;;;;5053117;28;20025;-81
2021/11/21 07:25:21;;;;;;;39.40;15.07;;;3.80;71.30;;;;;;5067237;28;20032;-82
2021/11/21 07:27:48;;;;;;;72.50;15.20;;;3.70;71.40;;;;;;5057862;28;20051;-80
2021/11/21 07:30:18;;;;;;;76.30;14.87;;;3.60;71.70;;;;;;5051317;28;20043;-81
2021/11/21 07:32:45;;;;;;;48.57;11.47;;;3.60;71.70;;;;;;5066394;28;20418;-81
2021/11/21 07:35:13;;;;;;;23.00;9.53;;;3.50;71.80;;;;;;5068514;28;20430;-81
2021/11/21 07:37:38;;;;;;;50.97;16.77;;;3.50;71.80;;;;;;5047407;28;20036;-81
2021/11/21 07:40:06;;;;;;;25.10;12.50;;;3.50;72.30;;;;;;5052463;28;20032;-81
2021/11/21 07:42:32;;;;;;;23.37;12.50;;;3.50;72.20;;;;;;5050422;28;20028;-81
2021/11/21 07:44:58;;;;;;;20.33;10.87;;;3.50;72.10;;;;;;5066097;28;20042;-81
2021/11/21 07:47:24;;;;;;;39.20;10.40;;;3.40;72.30;;;;;;5046804;28;20036;-81
2021/11/21 07:49:49;;;;;;;26.30;10.97;;;3.40;72.50;;;;;;5073003;28;20029;-81
2021/11/21 07:52:15;;;;;;;63.87;9.33;;;3.50;72.60;;;;;;5070586;28;20477;-81
2021/11/21 07:54:43;;;;;;;50.03;10.77;;;3.50;72.40;;;;;;5069059;28;20024;-82
2021/11/21 07:57:10;;;;;;;34.60;9.47;;;3.60;72.60;;;;;;5046042;28;20036;-81
2021/11/21 07:59:36;;;;;;;42.73;10.03;;;3.60;72.60;;;;;;5060223;28;20394;-81
2021/11/21 08:02:02;;;;;;;28.50;8.30;;;3.70;72.50;;;;;;5102292;28;20031;-82
2021/11/21 08:04:27;;;;;;;30.10;9.67;;;3.70;72.40;;;;;;5053044;28;20097;-81
2021/11/21 08:06:53;;;;;;;40.03;9.53;;;3.70;72.30;;;;;;5077484;28;20082;-81
2021/11/21 08:09:19;;;;;;;46.80;11.60;;;3.70;72.20;;;;;;5069836;28;20491;-81
2021/11/21 08:11:45;;;;;;;40.20;9.90;;;3.70;72.60;;;;;;5063997;28;20496;-81
2021/11/21 08:14:11;;;;;;;30.17;9.90;;;3.70;72.70;;;;;;5067557;28;20063;-81
2021/11/21 08:16:37;;;;;;;24.70;10.23;;;3.80;73.60;;;;;;5066305;28;20024;-82
2021/11/21 08:19:02;;;;;;;27.10;12.00;;;4.00;73.10;;;;;;5073738;28;20081;-82
2021/11/21 08:21:28;;;;;;;39.80;16.30;;;4.10;72.70;;;;;;5079013;28;20422;-82
2021/11/21 08:23:54;;;;;;;61.93;16.60;;;4.10;72.60;;;;;;5082216;28;20036;-81
2021/11/21 08:26:20;;;;;;;48.90;17.50;;;4.20;72.50;;;;;;5055385;28;20535;-82
2021/11/21 08:28:45;;;;;;;29.97;17.03;;;4.30;72.60;;;;;;5080134;28;20020;-82
2021/11/21 08:31:11;;;;;;;29.47;17.90;;;4.40;72.50;;;;;;5052587;28;20031;-81
2021/11/21 08:33:37;;;;;;;40.83;19.70;;;4.50;72.30;;;;;;5062046;28;20485;-82
2021/11/21 08:36:03;;;;;;;34.27;19.67;;;4.60;72.30;;;;;;5056532;28;20032;-81
2021/11/21 08:38:29;;;;;;;40.70;17.00;;;4.70;72.40;;;;;;5075862;28;20036;-82
2021/11/21 08:40:55;;;;;;;30.50;14.10;;;4.70;72.20;;;;;;5056998;28;20028;-82
2021/11/21 08:43:21;;;;;;;54.80;38.60;;;4.70;72.10;;;;;;5077023;28;20048;-82
2021/11/21 08:45:47;;;;;;;49.37;24.70;;;4.70;72.10;;;;;;5056373;28;20033;-82
2021/11/21 08:48:13;;;;;;;39.20;21.60;;;4.80;72.30;;;;;;5077102;28;20028;-82
2021/11/21 08:50:39;;;;;;;42.30;20.07;;;4.90;72.30;;;;;;5079750;28;20226;-82
2021/11/21 08:53:05;;;;;;;35.40;16.57;;;4.90;72.20;;;;;;5052309;28;20028;-82
2021/11/21 08:55:31;;;;;;;33.07;18.20;;;5.00;72.40;;;;;;5070206;28;20036;-82
2021/11/21 08:57:58;;;;;;;42.67;23.03;;;5.00;72.30;;;;;;5071718;28;20036;-82
2021/11/21 09:00:24;;;;;;;38.70;19.20;;;5.10;72.30;;;;;;5064445;28;20032;-82
2021/11/21 09:02:51;;;;;;;35.97;19.83;;;5.20;72.30;;;;;;5052101;28;20044;-82
2021/11/21 09:05:16;;;;;;;31.23;17.30;;;5.30;72.20;;;;;;5054486;28;20060;-82
2021/11/21 09:07:44;;;;;;;20.07;13.10;;;5.40;72.00;;;;;;5056653;28;20070;-82
2021/11/21 09:10:15;;;;;;;19.30;10.30;;;5.50;72.10;;;;;;5079487;28;20032;-82
2021/11/21 09:12:41;;;;;;;21.93;11.83;;;5.50;72.10;;;;;;5071335;28;20471;-81
2021/11/21 09:15:14;;;;;;;15.20;9.87;;;5.50;72.30;;;;;;5068166;28;20054;-81
2021/11/21 09:17:41;;;;;;;16.15;10.20;;;5.70;72.00;;;;;;5068760;28;20032;-81
2021/11/21 09:20:07;;;;;;;15.77;10.83;;;5.90;71.70;;;;;;5049951;28;20040;-81
2021/11/21 09:22:33;;;;;;;12.90;8.80;;;6.00;71.40;;;;;;5060376;28;20137;-81
2021/11/21 09:24:59;;;;;;;11.43;7.93;;;6.20;71.40;;;;;;5074623;28;20032;-81
2021/11/21 09:27:25;;;;;;;10.30;8.30;;;6.20;71.10;;;;;;5062844;28;20024;-81
2021/11/21 09:29:50;;;;;;;8.63;7.30;;;6.30;71.10;;;;;;5048938;28;20031;-81
2021/11/21 09:32:16;;;;;;;8.60;6.33;;;6.40;70.90;;;;;;5063957;28;20026;-81
2021/11/21 09:34:42;;;;;;;9.53;6.50;;;6.60;70.50;;;;;;5056144;28;20029;-81
2021/11/21 09:37:09;;;;;;;7.60;5.70;;;6.80;69.80;;;;;;5055729;28;20024;-81
2021/11/21 09:39:35;;;;;;;8.90;6.50;;;6.90;69.50;;;;;;5077095;28;21386;-81
2021/11/21 09:42:02;;;;;;;8.37;6.43;;;7.00;69.30;;;;;;5066785;28;20056;-82
2021/11/21 09:44:28;;;;;;;7.20;5.40;;;7.10;69.00;;;;;;5064662;28;20045;-81
2021/11/21 09:46:54;;;;;;;8.87;6.10;;;7.30;68.90;;;;;;5051306;28;20033;-81
2021/11/21 09:49:21;;;;;;;8.00;6.37;;;7.40;68.70;;;;;;5048357;28;20082;-82
2021/11/21 09:51:47;;;;;;;10.50;6.93;;;7.60;68.40;;;;;;5047455;28;20052;-82
2021/11/21 09:54:15;;;;;;;13.27;7.93;;;7.80;68.00;;;;;;5051174;28;20033;-81
2021/11/21 09:56:44;;;;;;;12.70;8.10;;;8.00;67.30;;;;;;5029933;28;20032;-82
2021/11/21 09:59:11;;;;;;;13.87;7.90;;;8.20;66.80;;;;;;5066352;28;20033;-82
2021/11/21 10:01:40;;;;;;;10.07;8.03;;;8.30;66.90;;;;;;5029278;28;20091;-81
2021/11/21 10:04:08;;;;;;;13.33;6.93;;;8.50;66.30;;;;;;5027770;28;20067;-82
2021/11/21 10:06:36;;;;;;;13.60;7.30;;;8.50;66.10;;;;;;5065356;28;20028;-82
2021/11/21 10:09:08;;;;;;;11.27;8.33;;;8.70;65.70;;;;;;5033443;28;20017;-82
2021/11/21 10:12:04;;;;;;;9.23;6.53;;;8.70;65.40;;;;;;5028410;28;20028;-82
2021/11/21 10:14:32;;;;;;;9.83;6.47;;;8.80;65.00;;;;;;5048832;28;20056;-81
2021/11/21 10:16:58;;;;;;;7.40;6.27;;;9.00;65.20;;;;;;5053395;28;20661;-82
2021/11/21 10:19:24;;;;;;;9.43;6.20;;;9.10;64.80;;;;;;5060407;28;20029;-82
2021/11/21 10:21:53;;;;;;;8.07;6.37;;;9.30;64.60;;;;;;5043507;28;20517;-82
2021/11/21 10:24:29;;;;;;;14.63;6.80;;;9.60;64.30;;;;;;5043780;28;20560;-82
2021/11/21 10:27:08;;;;;;;10.47;7.77;;;9.80;63.60;;;;;;5043088;28;20036;-82
2021/11/21 10:29:42;;;;;;;11.70;7.70;;;9.80;62.90;;;;;;5042205;28;20029;-82
2021/11/21 10:32:21;;;;;;;10.73;6.23;;;9.80;63.30;;;;;;5061063;28;20024;-82
2021/11/21 10:34:56;;;;;;;8.20;5.70;;;9.90;63.30;;;;;;5037682;28;21374;-82
2021/11/21 10:37:48;;;;;;;7.43;5.33;;;10.20;62.80;;;;;;5036564;28;20062;-82
2021/11/21 10:40:18;;;;;;;9.70;6.57;;;10.50;62.20;;;;;;5023905;28;20092;-82
2021/11/21 10:42:48;;;;;;;12.83;9.37;;;10.60;61.70;;;;;;5034826;28;20067;-83
2021/11/21 10:45:20;;;;;;;14.80;11.20;;;10.50;61.10;;;;;;5055961;28;20036;-83
2021/11/21 10:47:52;;;;;;;13.23;8.97;;;10.30;61.20;;;;;;5067273;28;20145;-82
2021/11/21 10:50:31;;;;;;;;;;;10.30;61.50;;;;;;5076169;28;20287;-82
2021/11/21 10:52:59;;;;;;;24.67;18.13;;;10.30;61.80;;;;;;5053868;28;20337;-83
2021/11/21 10:55:26;;;;;;;28.53;21.80;;;10.30;61.80;;;;;;5064209;28;20082;-83
2021/11/21 10:57:52;;;;;;;22.87;18.93;;;10.40;61.80;;;;;;5070796;28;20024;-81
2021/11/21 11:00:23;;;;;;;23.57;18.57;;;10.70;61.30;;;;;;5044070;28;20093;-82
2021/11/21 11:02:50;;;;;;;21.30;15.80;;;10.80;61.10;;;;;;5068976;28;20028;-82
2021/11/21 11:05:19;;;;;;;30.10;19.47;;;10.90;60.80;;;;;;5070163;28;21872;-82
2021/11/21 11:07:47;;;;;;;17.87;12.07;;;11.00;60.50;;;;;;5078740;28;20036;-82
2021/11/21 11:10:33;;;;;;;8.83;6.27;;;11.10;60.30;;;;;;5078441;28;20028;-82
2021/11/21 11:13:00;;;;;;;8.33;6.10;;;11.20;59.60;;;;;;5047316;28;20055;-82
2021/11/21 11:15:27;;;;;;;33.10;11.33;;;11.30;59.40;;;;;;5072647;28;20021;-83
2021/11/21 11:17:53;;;;;;;10.17;7.87;;;11.40;59.30;;;;;;5064117;28;20090;-83
2021/11/21 11:20:21;;;;;;;16.73;11.77;;;11.50;58.40;;;;;;5048145;28;20466;-82
2021/11/21 11:22:48;;;;;;;22.10;18.70;;;11.30;58.30;;;;;;5069600;28;20044;-82
2021/11/21 11:25:27;;;;;;;13.93;12.30;;;11.20;58.40;;;;;;5057779;28;20093;-83
2021/11/21 11:28:06;;;;;;;13.33;8.83;;;11.30;58.90;;;;;;5080177;28;20021;-83
2021/11/21 11:30:34;;;;;;;15.57;11.83;;;11.50;58.50;;;;;;5051757;28;20021;-83
2021/11/21 11:33:11;;;;;;;9.17;7.87;;;11.50;58.30;;;;;;5046531;28;20059;-83
2021/11/21 11:35:53;;;;;;;15.23;11.10;;;11.50;58.00;;;;;;5066715;28;20037;-83
2021/11/21 11:38:29;;;;;;;10.67;7.97;;;11.60;58.00;;;;;;5057791;28;20089;-83
2021/11/21 11:41:01;;;;;;;9.43;6.63;;;11.60;58.10;;;;;;5074044;28;20028;-83
2021/11/21 11:43:32;;;;;;;10.52;8.18;;;11.60;58.20;;;;;;5061790;28;20056;-82
2021/11/21 11:46:25;;;;;;;10.57;8.30;;;11.70;58.00;;;;;;5073601;28;20107;-83
2021/11/21 11:48:52;;;;;;;13.07;10.63;;;11.70;57.80;;;;;;5067190;28;20463;-83
2021/11/21 11:51:23;;;;;;;10.87;7.97;;;11.90;57.80;;;;;;5085877;28;20052;-82
2021/11/21 11:53:57;;;;;;;10.77;6.80;;;11.90;57.30;;;;;;5070752;28;20040;-83
2021/11/21 11:56:29;;;;;;;13.83;10.83;;;11.90;57.20;;;;;;5051709;28;20044;-83
2021/11/21 11:59:07;;;;;;;18.13;13.90;;;11.90;57.00;;;;;;5072618;28;20077;-83
2021/11/21 12:01:38;;;;;;;11.73;9.17;;;12.00;57.00;;;;;;5053781;28;20028;-83
2021/11/21 12:04:09;;;;;;;15.60;8.23;;;12.10;56.90;;;;;;5069147;28;20495;-83
2021/11/21 12:06:48;;;;;;;22.57;14.07;;;12.10;56.80;;;;;;5061433;28;20024;-83
2021/11/21 12:09:19;;;;;;;29.07;16.13;;;12.30;56.70;;;;;;5082782;28;20034;-83
2021/11/21 12:12:01;;;;;;;28.38;16.45;;;12.40;56.30;;;;;;5070133;28;20071;-82
2021/11/21 12:14:31;;;;;;;43.97;24.43;;;12.50;55.90;;;;;;5061576;28;20071;-82
2021/11/21 12:17:01;;;;;;;44.23;23.80;;;12.50;55.70;;;;;;5057716;28;20032;-82
2021/11/21 12:19:43;;;;;;;38.27;22.23;;;12.50;55.40;;;;;;5071402;28;20432;-82
2021/11/21 12:22:28;;;;;;;81.40;46.88;;;12.50;54.70;;;;;;5054333;28;20059;-83
2021/11/21 12:25:00;;;;;;;34.60;20.43;;;12.40;54.60;;;;;;5065263;28;20029;-82
2021/11/21 12:27:29;;;;;;;43.80;26.00;;;12.30;54.60;;;;;;5071365;28;20032;-82
2021/11/21 12:30:21;;;;;;;58.37;35.53;;;12.30;54.50;;;;;;5065269;28;20435;-82
2021/11/21 12:32:48;;;;;;;30.88;18.75;;;12.30;54.40;;;;;;5076899;28;20547;-81
2021/11/21 12:35:25;;;;;;;41.33;25.67;;;12.20;54.60;;;;;;5060065;28;20060;-82
2021/11/21 12:37:52;;;;;;;12.77;6.73;;;12.30;54.40;;;;;;5071702;28;20187;-82
2021/11/21 12:40:44;;;;;;;5.20;3.20;;;12.30;54.30;;;;;;5053400;28;20039;-82
2021/11/21 12:43:13;;;;;;;4.57;2.77;;;12.40;54.10;;;;;;5046358;28;20073;-80
2021/11/21 12:45:39;;;;;;;4.53;2.73;;;12.40;54.10;;;;;;5056058;28;20103;-80
2021/11/21 12:48:08;;;;;;;2.90;2.37;;;12.40;54.10;;;;;;5071980;28;20025;-81
2021/11/21 12:50:43;;;;;;;4.70;2.70;;;12.40;54.10;;;;;;5063922;28;20036;-81